createdAt,value
2023-04-26T00:00:24.603Z,100.00
2023-04-26T00:01:27.506Z,100.00
2023-04-26T00:02:29.854Z,100.00
2023-04-26T00:03:32.996Z,100.00
2023-04-26T00:04:35.756Z,100.00
2023-04-26T00:05:38.752Z,100.00
2023-04-26T00:06:41.522Z,100.00
2023-04-26T00:07:44.386Z,100.00
2023-04-26T00:08:46.544Z,100.00
2023-04-26T00:09:48.832Z,100.00
2023-04-26T00:10:51.002Z,100.00
2023-04-26T00:11:53.196Z,100.00
2023-04-26T00:12:55.392Z,100.00
2023-04-26T00:13:58.757Z,100.00
2023-04-26T00:15:00.973Z,100.00
2023-04-26T00:16:03.717Z,100.00
2023-04-26T00:17:06.187Z,100.00
2023-04-26T00:18:08.463Z,100.00
2023-04-26T00:19:11.855Z,100.00
2023-04-26T00:20:14.112Z,100.00
2023-04-26T00:21:16.525Z,100.00
2023-04-26T00:22:18.728Z,100.00
2023-04-26T00:23:21.011Z,100.00
2023-04-26T00:24:23.556Z,100.00
2023-04-26T00:25:25.821Z,100.00
2023-04-26T00:26:28.109Z,100.00
2023-04-26T00:27:30.332Z,100.00
2023-04-26T00:28:32.514Z,100.00
2023-04-26T00:29:35.300Z,100.00
2023-04-26T00:30:41.083Z,100.00
2023-04-26T00:31:44.903Z,100.00
2023-04-26T00:32:47.891Z,100.00
2023-04-26T00:33:51.226Z,100.00
2023-04-26T00:34:53.468Z,100.00
2023-04-26T00:35:56.108Z,100.00
2023-04-26T00:36:58.344Z,100.00
2023-04-26T00:38:00.869Z,100.00
2023-04-26T00:39:03.266Z,100.00
2023-04-26T00:40:06.382Z,100.00
2023-04-26T00:41:08.553Z,100.00
2023-04-26T00:42:10.743Z,100.00
2023-04-26T00:43:13.067Z,100.00
2023-04-26T00:44:15.708Z,100.00
2023-04-26T00:45:17.864Z,100.00
2023-04-26T00:46:20.989Z,100.00
2023-04-26T00:47:25.840Z,100.00
2023-04-26T00:48:28.660Z,100.00
2023-04-26T00:49:31.056Z,100.00
2023-04-26T00:50:34.021Z,100.00
2023-04-26T00:51:37.545Z,100.00
2023-04-26T00:52:39.747Z,100.00
2023-04-26T00:53:42.753Z,100.00
2023-04-26T00:54:45.263Z,100.00
2023-04-26T00:55:47.666Z,100.00
2023-04-26T00:56:52.957Z,100.00
2023-04-26T00:57:55.318Z,100.00
2023-04-26T00:58:57.601Z,100.00
2023-04-26T00:59:59.826Z,100.00
2023-04-26T01:01:02.985Z,100.00
2023-04-26T01:02:05.599Z,100.00
2023-04-26T01:03:08.220Z,100.00
2023-04-26T01:04:12.996Z,100.00
2023-04-26T01:05:15.329Z,100.00
2023-04-26T01:06:19.859Z,100.00
2023-04-26T01:07:22.252Z,100.00
2023-04-26T01:08:24.441Z,100.00
2023-04-26T01:09:26.688Z,100.00
2023-04-26T01:10:29.210Z,100.00
2023-04-26T01:11:34.631Z,100.00
2023-04-26T01:12:38.140Z,100.00
2023-04-26T01:13:42.008Z,100.00
2023-04-26T01:14:45.118Z,100.00
2023-04-26T01:15:48.384Z,100.00
2023-04-26T01:16:52.141Z,100.00
2023-04-26T01:17:54.700Z,100.00
2023-04-26T01:18:57.803Z,100.00
2023-04-26T01:19:59.979Z,100.00
2023-04-26T01:21:04.638Z,100.00
2023-04-26T01:22:06.795Z,100.00
2023-04-26T01:23:10.007Z,100.00
2023-04-26T01:24:13.830Z,100.00
2023-04-26T01:25:16.272Z,100.00
2023-04-26T01:26:18.776Z,100.00
2023-04-26T01:27:22.571Z,100.00
2023-04-26T01:28:24.804Z,100.00
2023-04-26T01:29:27.293Z,100.00
2023-04-26T01:30:29.537Z,100.00
2023-04-26T01:31:31.750Z,100.00
2023-04-26T01:32:34.925Z,100.00
2023-04-26T01:33:37.189Z,100.00
2023-04-26T01:34:39.404Z,100.00
2023-04-26T01:35:42.088Z,100.00
2023-04-26T01:36:44.239Z,100.00
2023-04-26T01:37:46.409Z,100.00
2023-04-26T01:38:48.595Z,100.00
2023-04-26T01:39:50.858Z,100.00
2023-04-26T01:40:55.486Z,100.00
2023-04-26T01:41:58.682Z,100.00
2023-04-26T01:43:03.131Z,100.00
2023-04-26T01:44:05.356Z,100.00
2023-04-26T01:45:07.793Z,100.00
2023-04-26T01:46:28.693Z,100.00
2023-04-26T01:47:30.927Z,100.00
2023-04-26T01:48:33.177Z,100.00
2023-04-26T01:49:37.301Z,100.00
2023-04-26T01:50:39.609Z,100.00
2023-04-26T01:51:41.946Z,100.00
2023-04-26T01:52:44.264Z,100.00
2023-04-26T01:53:47.278Z,100.00
2023-04-26T01:54:49.493Z,100.00
2023-04-26T01:55:51.711Z,100.00
2023-04-26T01:56:54.017Z,100.00
2023-04-26T01:57:56.314Z,100.00
2023-04-26T01:58:59.140Z,100.00
2023-04-26T02:02:11.484Z,100.00
2023-04-26T02:03:13.966Z,100.00
2023-04-26T02:04:16.235Z,100.00
2023-04-26T02:05:18.532Z,100.00
2023-04-26T02:06:21.654Z,100.00
2023-04-26T02:07:23.822Z,100.00
2023-04-26T02:08:31.684Z,100.00
2023-04-26T02:09:33.932Z,100.00
2023-04-26T02:10:37.535Z,100.00
2023-04-26T02:11:39.703Z,100.00
2023-04-26T02:12:41.932Z,100.00
2023-04-26T02:13:44.129Z,100.00
2023-04-26T02:14:46.340Z,100.00
2023-04-26T02:15:49.881Z,100.00
2023-04-26T02:16:52.191Z,100.00
2023-04-26T02:17:55.618Z,100.00
2023-04-26T02:18:59.281Z,100.00
2023-04-26T02:20:01.543Z,100.00
2023-04-26T02:21:08.410Z,100.00
2023-04-26T02:22:10.609Z,100.00
2023-04-26T02:23:16.717Z,100.00
2023-04-26T02:24:19.079Z,100.00
2023-04-26T02:25:21.450Z,100.00
2023-04-26T02:26:23.732Z,100.00
2023-04-26T02:27:26.119Z,100.00
2023-04-26T02:28:30.177Z,100.00
2023-04-26T02:29:43.651Z,100.00
2023-04-26T02:30:46.964Z,100.00
2023-04-26T02:31:49.288Z,100.00
2023-04-26T02:32:56.303Z,100.00
2023-04-26T02:33:58.622Z,100.00
2023-04-26T02:35:01.473Z,100.00
2023-04-26T02:36:08.277Z,100.00
2023-04-26T02:37:10.914Z,100.00
2023-04-26T02:38:13.749Z,100.00
2023-04-26T02:39:16.927Z,100.00
2023-04-26T02:40:19.808Z,100.00
2023-04-26T02:41:23.555Z,100.00
2023-04-26T02:42:26.079Z,100.00
2023-04-26T02:43:28.698Z,100.00
2023-04-26T02:44:31.117Z,100.00
2023-04-26T02:45:33.812Z,100.00
2023-04-26T02:46:36.248Z,100.00
2023-04-26T02:47:38.725Z,100.00
2023-04-26T02:48:41.148Z,100.00
2023-04-26T02:49:43.340Z,100.00
2023-04-26T02:50:47.262Z,100.00
2023-04-26T02:51:51.832Z,100.00
2023-04-26T02:52:54.081Z,100.00
2023-04-26T02:53:56.399Z,100.00
2023-04-26T02:54:58.574Z,100.00
2023-04-26T02:56:01.517Z,100.00
2023-04-26T02:57:04.492Z,100.00
2023-04-26T02:58:06.679Z,100.00
2023-04-26T02:59:09.171Z,100.00
2023-04-26T03:00:13.838Z,100.00
2023-04-26T03:01:16.311Z,100.00
2023-04-26T03:02:18.687Z,100.00
2023-04-26T03:03:23.098Z,100.00
2023-04-26T03:04:25.740Z,100.00
2023-04-26T03:05:28.293Z,100.00
2023-04-26T03:06:30.491Z,100.00
2023-04-26T03:07:33.013Z,100.00
2023-04-26T03:08:36.612Z,100.00
2023-04-26T03:09:38.942Z,100.00
2023-04-26T03:10:41.197Z,100.00
2023-04-26T03:11:43.791Z,100.00
2023-04-26T03:12:46.207Z,100.00
2023-04-26T03:13:48.478Z,100.00
2023-04-26T03:14:50.679Z,100.00
2023-04-26T03:15:53.832Z,100.00
2023-04-26T03:16:57.283Z,100.00
2023-04-26T03:18:00.855Z,100.00
2023-04-26T03:19:03.328Z,100.00
2023-04-26T03:20:08.928Z,100.00
2023-04-26T03:21:11.979Z,100.00
2023-04-26T03:22:16.152Z,100.00
2023-04-26T03:23:18.592Z,100.00
2023-04-26T03:24:20.746Z,100.00
2023-04-26T03:25:23.254Z,100.00
2023-04-26T03:26:26.025Z,100.00
2023-04-26T03:27:28.325Z,100.00
2023-04-26T03:28:31.218Z,100.00
2023-04-26T03:29:33.446Z,100.00
2023-04-26T03:30:36.060Z,100.00
2023-04-26T03:31:38.716Z,100.00
2023-04-26T03:32:41.213Z,100.00
2023-04-26T03:33:43.381Z,100.00
2023-04-26T03:34:47.656Z,100.00
2023-04-26T03:35:51.452Z,100.00
2023-04-26T03:36:53.662Z,100.00
2023-04-26T03:37:58.489Z,100.00
2023-04-26T03:39:02.248Z,100.00
2023-04-26T03:40:08.292Z,100.00
2023-04-26T03:41:10.761Z,100.00
2023-04-26T03:42:12.987Z,100.00
2023-04-26T03:43:15.311Z,100.00
2023-04-26T03:44:17.526Z,100.00
2023-04-26T03:45:20.609Z,100.00
2023-04-26T03:46:22.979Z,100.00
2023-04-26T03:47:25.401Z,100.00
2023-04-26T03:48:27.710Z,100.00
2023-04-26T03:49:29.900Z,100.00
2023-04-26T03:50:32.565Z,100.00
2023-04-26T03:51:35.877Z,100.00
2023-04-26T03:52:38.218Z,100.00
2023-04-26T03:53:41.682Z,100.00
2023-04-26T03:54:44.433Z,100.00
2023-04-26T03:55:47.527Z,100.00
2023-04-26T03:56:50.446Z,100.00
2023-04-26T03:57:53.877Z,100.00
2023-04-26T03:58:57.270Z,100.00
2023-04-26T04:00:01.128Z,100.00
2023-04-26T04:01:04.820Z,100.00
2023-04-26T04:02:07.164Z,100.00
2023-04-26T04:03:10.245Z,100.00
2023-04-26T04:04:12.863Z,100.00
2023-04-26T04:05:15.838Z,100.00
2023-04-26T04:06:18.241Z,100.00
2023-04-26T04:07:21.644Z,100.00
2023-04-26T04:08:23.919Z,100.00
2023-04-26T04:09:26.431Z,100.00
2023-04-26T04:10:29.597Z,100.00
2023-04-26T04:11:32.945Z,100.00
2023-04-26T04:12:35.117Z,100.00
2023-04-26T04:13:37.582Z,100.00
2023-04-26T04:14:40.122Z,100.00
2023-04-26T04:15:42.388Z,100.00
2023-04-26T04:16:44.650Z,100.00
2023-04-26T04:17:47.498Z,100.00
2023-04-26T04:18:50.231Z,100.00
2023-04-26T04:19:52.771Z,100.00
2023-04-26T04:20:54.955Z,100.00
2023-04-26T04:21:57.695Z,100.00
2023-04-26T04:23:02.122Z,100.00
2023-04-26T04:24:05.698Z,100.00
2023-04-26T04:25:10.533Z,100.00
2023-04-26T04:26:13.251Z,100.00
2023-04-26T04:27:16.341Z,100.00
2023-04-26T04:28:20.335Z,100.00
2023-04-26T04:29:22.719Z,100.00
2023-04-26T04:30:26.218Z,100.00
2023-04-26T04:31:28.562Z,100.00
2023-04-26T04:32:32.889Z,100.00
2023-04-26T04:33:35.696Z,100.00
2023-04-26T04:34:38.084Z,100.00
2023-04-26T04:35:43.340Z,100.00
2023-04-26T04:36:45.591Z,100.00
2023-04-26T04:37:49.942Z,100.00
2023-04-26T04:38:53.679Z,100.00
2023-04-26T04:39:56.651Z,100.00
2023-04-26T04:40:59.383Z,100.00
2023-04-26T04:42:01.568Z,100.00
2023-04-26T04:43:04.385Z,100.00
2023-04-26T04:44:07.690Z,100.00
2023-04-26T04:45:10.617Z,100.00
2023-04-26T04:46:14.754Z,100.00
2023-04-26T04:47:17.698Z,100.00
2023-04-26T04:48:21.288Z,100.00
2023-04-26T04:49:24.703Z,100.00
2023-04-26T04:50:27.065Z,100.00
2023-04-26T04:51:30.945Z,100.00
2023-04-26T04:52:33.273Z,100.00
2023-04-26T04:53:35.431Z,100.00
2023-04-26T04:54:37.782Z,100.00
2023-04-26T04:55:40.064Z,100.00
2023-04-26T04:56:44.419Z,100.00
2023-04-26T04:57:50.946Z,100.00
2023-04-26T04:58:54.147Z,100.00
2023-04-26T04:59:58.432Z,100.00
2023-04-26T05:01:02.812Z,100.00
2023-04-26T05:02:07.013Z,100.00
2023-04-26T05:03:10.040Z,100.00
2023-04-26T05:04:13.033Z,100.00
2023-04-26T05:05:15.596Z,100.00
2023-04-26T05:06:17.853Z,100.00
2023-04-26T05:07:20.338Z,100.00
2023-04-26T05:08:26.939Z,100.00
2023-04-26T05:09:30.190Z,100.00
2023-04-26T05:10:32.554Z,100.00
2023-04-26T05:11:35.012Z,100.00
2023-04-26T05:12:40.194Z,100.00
2023-04-26T05:13:42.378Z,100.00
2023-04-26T05:14:44.566Z,100.00
2023-04-26T05:15:46.738Z,100.00
2023-04-26T05:16:49.099Z,100.00
2023-04-26T05:17:52.704Z,100.00
2023-04-26T05:18:57.794Z,100.00
2023-04-26T05:20:00.592Z,100.00
2023-04-26T05:21:02.910Z,100.00
2023-04-26T05:22:05.742Z,100.00
2023-04-26T05:23:08.279Z,100.00
2023-04-26T05:24:10.777Z,100.00
2023-04-26T05:25:13.901Z,100.00
2023-04-26T05:26:17.186Z,100.00
2023-04-26T05:27:38.138Z,100.00
2023-04-26T05:29:03.714Z,100.00
2023-04-26T05:30:18.600Z,100.00
2023-04-26T05:31:24.894Z,100.00
2023-04-26T05:32:41.618Z,100.00
2023-04-26T05:34:09.149Z,100.00
2023-04-26T05:35:13.279Z,100.00
2023-04-26T05:36:15.602Z,100.00
2023-04-26T05:37:17.763Z,100.00
2023-04-26T05:38:21.841Z,100.00
2023-04-26T05:39:24.069Z,100.00
2023-04-26T05:40:27.018Z,100.00
2023-04-26T05:41:29.320Z,100.00
2023-04-26T05:42:31.518Z,100.00
2023-04-26T05:43:33.876Z,100.00
2023-04-26T05:44:36.342Z,100.00
2023-04-26T05:45:39.068Z,100.00
2023-04-26T05:46:41.373Z,100.00
2023-04-26T05:47:47.437Z,100.00
2023-04-26T05:48:49.728Z,100.00
2023-04-26T05:49:51.982Z,100.00
2023-04-26T05:50:54.377Z,100.00
2023-04-26T05:51:58.753Z,100.00
2023-04-26T05:53:00.919Z,100.00
2023-04-26T05:54:04.924Z,100.00
2023-04-26T05:55:08.875Z,100.00
2023-04-26T05:56:11.634Z,100.00
2023-04-26T05:57:15.123Z,100.00
2023-04-26T05:58:17.521Z,100.00
2023-04-26T05:59:21.081Z,100.00
2023-04-26T06:00:23.562Z,100.00
2023-04-26T06:01:27.706Z,100.00
2023-04-26T06:02:30.542Z,100.00
2023-04-26T06:03:33.149Z,100.00
2023-04-26T06:04:35.701Z,100.00
2023-04-26T06:05:42.502Z,100.00
2023-04-26T06:06:44.774Z,100.00
2023-04-26T06:07:47.095Z,100.00
2023-04-26T06:08:49.278Z,100.00
2023-04-26T06:09:51.752Z,100.00
2023-04-26T06:10:54.545Z,100.00
2023-04-26T06:11:57.013Z,100.00
2023-04-26T06:12:59.578Z,100.00
2023-04-26T06:14:04.624Z,100.00
2023-04-26T06:15:07.239Z,100.00
2023-04-26T06:16:11.194Z,100.00
2023-04-26T06:17:14.149Z,100.00
2023-04-26T06:18:16.551Z,100.00
2023-04-26T06:19:18.847Z,100.00
2023-04-26T06:20:21.281Z,100.00
2023-04-26T06:21:23.656Z,100.00
2023-04-26T06:22:27.246Z,100.00
2023-04-26T06:23:29.611Z,100.00
2023-04-26T06:24:31.860Z,100.00
2023-04-26T06:25:34.298Z,100.00
2023-04-26T06:26:36.545Z,100.00
2023-04-26T06:27:39.835Z,100.00
2023-04-26T06:28:42.413Z,100.00
2023-04-26T06:29:45.146Z,100.00
2023-04-26T06:30:47.594Z,100.00
2023-04-26T06:31:50.213Z,100.00
2023-04-26T06:32:55.235Z,100.00
2023-04-26T06:33:57.822Z,100.00
2023-04-26T06:35:01.252Z,100.00
2023-04-26T06:36:03.659Z,100.00
2023-04-26T06:37:06.261Z,100.00
2023-04-26T06:38:09.133Z,100.00
2023-04-26T06:39:12.108Z,100.00
2023-04-26T06:40:15.858Z,100.00
2023-04-26T06:41:18.494Z,100.00
2023-04-26T06:42:23.745Z,100.00
2023-04-26T06:43:55.789Z,100.00
2023-04-26T06:45:05.603Z,100.00
2023-04-26T06:46:10.790Z,100.00
2023-04-26T06:47:17.182Z,100.00
2023-04-26T06:48:19.360Z,100.00
2023-04-26T06:49:21.570Z,100.00
2023-04-26T06:50:23.686Z,100.00
2023-04-26T06:51:25.823Z,100.00
2023-04-26T06:52:29.684Z,100.00
2023-04-26T06:53:31.880Z,100.00
2023-04-26T06:54:37.751Z,100.00
2023-04-26T06:55:42.419Z,100.00
2023-04-26T06:56:44.833Z,100.00
2023-04-26T06:57:47.275Z,100.00
2023-04-26T06:59:03.788Z,100.00
2023-04-26T07:00:06.615Z,100.00
2023-04-26T07:01:09.903Z,100.00
2023-04-26T07:02:13.300Z,100.00
2023-04-26T07:03:16.996Z,100.00
2023-04-26T07:04:20.740Z,100.00
2023-04-26T07:05:23.482Z,100.00
2023-04-26T07:06:26.292Z,100.00
2023-04-26T07:07:28.482Z,100.00
2023-04-26T07:08:31.291Z,100.00
2023-04-26T07:09:33.596Z,100.00
2023-04-26T07:10:35.882Z,100.00
2023-04-26T07:11:38.214Z,100.00
2023-04-26T07:12:40.408Z,100.00
2023-04-26T07:13:42.632Z,100.00
2023-04-26T07:14:44.869Z,100.00
2023-04-26T07:15:47.115Z,100.00
2023-04-26T07:16:49.339Z,100.00
2023-04-26T07:17:51.745Z,100.00
2023-04-26T07:18:54.114Z,100.00
2023-04-26T07:19:56.371Z,100.00
2023-04-26T07:20:58.687Z,100.00
2023-04-26T07:22:01.495Z,100.00
2023-04-26T07:23:03.805Z,100.00
2023-04-26T07:24:06.657Z,100.00
2023-04-26T07:25:08.954Z,100.00
2023-04-26T07:26:11.739Z,100.00
2023-04-26T07:27:13.889Z,100.00
2023-04-26T07:28:16.136Z,100.00
2023-04-26T07:29:19.014Z,100.00
2023-04-26T07:30:21.260Z,100.00
2023-04-26T07:31:23.421Z,100.00
2023-04-26T07:32:25.749Z,100.00
2023-04-26T07:33:27.973Z,100.00
2023-04-26T07:34:30.422Z,100.00
2023-04-26T07:35:35.163Z,100.00
2023-04-26T07:36:37.550Z,100.00
2023-04-26T07:37:39.731Z,100.00
2023-04-26T07:38:42.305Z,100.00
2023-04-26T07:39:44.450Z,100.00
2023-04-26T07:40:46.603Z,100.00
2023-04-26T07:41:48.836Z,100.00
2023-04-26T07:42:50.993Z,100.00
2023-04-26T07:43:53.418Z,100.00
2023-04-26T07:44:55.776Z,100.00
2023-04-26T07:46:02.105Z,100.00
2023-04-26T07:47:04.645Z,100.00
2023-04-26T07:48:07.325Z,100.00
2023-04-26T07:49:09.673Z,100.00
2023-04-26T07:50:12.295Z,100.00
2023-04-26T07:51:14.586Z,100.00
2023-04-26T07:52:16.756Z,100.00
2023-04-26T07:53:19.072Z,100.00
2023-04-26T07:54:21.272Z,100.00
2023-04-26T07:55:23.622Z,100.00
2023-04-26T07:56:25.820Z,100.00
2023-04-26T07:57:28.282Z,100.00
2023-04-26T07:58:32.881Z,100.00
2023-04-26T07:59:35.073Z,100.00
2023-04-26T08:00:38.642Z,100.00
2023-04-26T08:01:41.312Z,100.00
2023-04-26T08:02:45.499Z,100.00
2023-04-26T08:03:49.092Z,100.00
2023-04-26T08:04:55.667Z,100.00
2023-04-26T08:05:59.163Z,100.00
2023-04-26T08:07:02.038Z,100.00
2023-04-26T08:08:04.405Z,100.00
2023-04-26T08:09:06.590Z,100.00
2023-04-26T08:10:09.284Z,100.00
2023-04-26T08:11:11.787Z,100.00
2023-04-26T08:12:14.052Z,100.00
2023-04-26T08:13:16.761Z,100.00
2023-04-26T08:14:18.922Z,100.00
2023-04-26T08:15:21.239Z,100.00
2023-04-26T08:16:23.477Z,100.00
2023-04-26T08:17:25.775Z,100.00
2023-04-26T08:18:27.958Z,100.00
2023-04-26T08:19:32.674Z,100.00
2023-04-26T08:20:34.903Z,100.00
2023-04-26T08:21:37.610Z,100.00
2023-04-26T08:22:39.822Z,100.00
2023-04-26T08:23:42.109Z,100.00
2023-04-26T08:24:49.781Z,100.00
2023-04-26T08:25:52.093Z,100.00
2023-04-26T08:26:55.294Z,100.00
2023-04-26T08:27:57.831Z,100.00
2023-04-26T08:28:59.961Z,100.00
2023-04-26T08:30:02.374Z,100.00
2023-04-26T08:31:05.920Z,99.99
2023-04-26T08:32:08.106Z,94.42
2023-04-26T08:33:10.367Z,91.12
2023-04-26T08:34:13.540Z,85.52
2023-04-26T08:35:15.704Z,82.76
2023-04-26T08:36:17.906Z,90.10
2023-04-26T08:37:20.079Z,92.65
2023-04-26T08:38:22.736Z,91.69
2023-04-26T08:39:25.197Z,92.36
2023-04-26T08:40:27.379Z,89.44
2023-04-26T08:41:35.330Z,93.44
2023-04-26T08:42:44.316Z,94.84
2023-04-26T08:43:46.616Z,87.19
2023-04-26T08:44:48.969Z,88.09
2023-04-26T08:45:51.631Z,85.96
2023-04-26T08:47:19.315Z,81.52
2023-04-26T08:48:21.760Z,86.66
2023-04-26T08:49:38.182Z,94.08
2023-04-26T08:50:44.178Z,95.61
2023-04-26T08:51:47.414Z,95.05
2023-04-26T08:52:51.696Z,94.64
2023-04-26T08:53:56.813Z,92.99
2023-04-26T08:55:00.288Z,94.04
2023-04-26T08:56:04.104Z,93.98
2023-04-26T08:57:07.522Z,84.25
2023-04-26T08:58:11.664Z,86.35
2023-04-26T08:59:15.109Z,91.49
2023-04-26T09:00:18.640Z,83.43
2023-04-26T09:01:21.659Z,85.54
2023-04-26T09:02:25.094Z,73.32
2023-04-26T09:03:28.079Z,75.00
2023-04-26T09:04:31.570Z,75.98
2023-04-26T09:05:34.437Z,81.51
2023-04-26T09:06:37.318Z,73.68
2023-04-26T09:07:44.665Z,73.26
2023-04-26T09:08:47.407Z,73.82
2023-04-26T09:09:53.078Z,80.34
2023-04-26T09:10:55.910Z,76.50
2023-04-26T09:12:00.776Z,79.10
2023-04-26T09:13:03.084Z,77.08
2023-04-26T09:14:05.233Z,78.04
2023-04-26T09:15:08.182Z,77.32
2023-04-26T09:16:10.700Z,75.75
2023-04-26T09:17:32.650Z,77.18
2023-04-26T09:18:34.988Z,69.83
2023-04-26T09:19:42.433Z,73.14
2023-04-26T09:20:45.771Z,79.37
2023-04-26T09:21:48.039Z,80.64
2023-04-26T09:22:52.181Z,76.23
2023-04-26T09:23:58.804Z,73.82
2023-04-26T09:25:02.530Z,73.05
2023-04-26T09:26:20.974Z,72.66
2023-04-26T09:27:32.343Z,73.81
2023-04-26T09:28:34.454Z,80.22
2023-04-26T09:29:36.665Z,76.98
2023-04-26T09:30:39.869Z,71.98
2023-04-26T09:31:49.607Z,72.40
2023-04-26T09:32:59.322Z,65.76
2023-04-26T09:34:01.612Z,65.39
2023-04-26T09:35:04.497Z,65.43
2023-04-26T09:36:13.329Z,64.91
2023-04-26T09:37:15.559Z,67.01
2023-04-26T09:38:18.592Z,59.99
2023-04-26T09:39:34.198Z,60.11
2023-04-26T09:40:37.246Z,63.72
2023-04-26T09:41:45.666Z,67.90
2023-04-26T09:42:57.916Z,72.02
2023-04-26T09:44:00.269Z,70.84
2023-04-26T09:45:08.679Z,66.92
2023-04-26T09:46:10.897Z,65.48
2023-04-26T09:47:13.161Z,64.12
2023-04-26T09:48:22.414Z,65.97
2023-04-26T09:49:27.395Z,66.29
2023-04-26T09:50:31.462Z,62.45
2023-04-26T09:51:33.636Z,62.64
2023-04-26T09:52:44.676Z,59.25
2023-04-26T09:53:49.878Z,59.10
2023-04-26T09:54:53.883Z,62.45
2023-04-26T09:55:56.892Z,62.66
2023-04-26T09:57:00.362Z,58.34
2023-04-26T09:58:10.480Z,55.94
2023-04-26T09:59:12.681Z,52.59
2023-04-26T10:00:15.253Z,51.64
2023-04-26T10:01:19.549Z,50.49
2023-04-26T10:02:23.078Z,49.40
2023-04-26T10:03:26.769Z,48.93
2023-04-26T10:04:29.186Z,48.82
2023-04-26T10:05:34.005Z,48.65
2023-04-26T10:06:36.429Z,51.00
2023-04-26T10:07:41.260Z,49.26
2023-04-26T10:08:44.185Z,49.44
2023-04-26T10:09:46.905Z,46.80
2023-04-26T10:10:49.618Z,47.81
2023-04-26T10:11:51.949Z,50.49
2023-04-26T10:12:54.180Z,46.85
2023-04-26T10:13:56.476Z,46.47
2023-04-26T10:14:58.687Z,45.94
2023-04-26T10:16:02.089Z,46.59
2023-04-26T10:17:05.737Z,43.28
2023-04-26T10:18:08.765Z,43.84
2023-04-26T10:19:12.011Z,46.32
2023-04-26T10:20:18.285Z,47.19
2023-04-26T10:21:31.229Z,46.32
2023-04-26T10:22:39.911Z,41.43
2023-04-26T10:23:42.229Z,42.25
2023-04-26T10:24:44.962Z,45.69
2023-04-26T10:25:47.927Z,45.61
2023-04-26T10:26:56.625Z,43.66
2023-04-26T10:27:58.902Z,44.18
2023-04-26T10:29:02.986Z,41.60
2023-04-26T10:30:07.496Z,39.28
2023-04-26T10:31:10.438Z,38.56
2023-04-26T10:32:17.525Z,43.63
2023-04-26T10:33:20.532Z,43.71
2023-04-26T10:34:22.944Z,43.95
2023-04-26T10:35:30.310Z,47.50
2023-04-26T10:36:33.518Z,49.74
2023-04-26T10:37:35.754Z,49.70
2023-04-26T10:38:42.947Z,51.39
2023-04-26T10:39:46.999Z,54.20
2023-04-26T10:40:50.398Z,53.54
2023-04-26T10:42:25.518Z,49.43
2023-04-26T10:43:28.811Z,48.73
2023-04-26T10:44:39.902Z,48.57
2023-04-26T10:45:49.227Z,47.75
2023-04-26T10:46:52.706Z,52.24
2023-04-26T10:48:13.511Z,52.35
2023-04-26T10:49:17.818Z,50.95
2023-04-26T10:50:20.014Z,49.65
2023-04-26T10:51:22.222Z,47.99
2023-04-26T10:52:24.390Z,44.94
2023-04-26T10:53:30.848Z,41.69
2023-04-26T10:54:50.701Z,41.10
2023-04-26T10:55:53.240Z,39.13
2023-04-26T10:56:55.564Z,38.11
2023-04-26T10:57:57.763Z,37.84
2023-04-26T10:59:36.147Z,43.24
2023-04-26T11:01:01.483Z,43.57
2023-04-26T11:02:04.123Z,41.33
2023-04-26T11:03:10.276Z,41.52
2023-04-26T11:04:13.411Z,40.38
2023-04-26T11:05:35.067Z,42.10
2023-04-26T11:06:51.002Z,43.31
2023-04-26T11:08:06.373Z,43.21
2023-04-26T11:09:39.435Z,43.57
2023-04-26T11:10:42.580Z,42.50
2023-04-26T11:11:53.669Z,42.59
2023-04-26T11:13:01.580Z,43.10
2023-04-26T11:14:03.916Z,44.65
2023-04-26T11:15:07.171Z,44.35
2023-04-26T11:16:11.606Z,46.22
2023-04-26T11:17:13.815Z,44.77
2023-04-26T11:18:18.993Z,45.19
2023-04-26T11:19:21.389Z,45.89
2023-04-26T11:20:28.203Z,45.72
2023-04-26T11:21:32.613Z,42.55
2023-04-26T11:22:39.195Z,41.50
2023-04-26T11:23:41.533Z,41.52
2023-04-26T11:24:43.732Z,39.88
2023-04-26T11:25:45.885Z,38.95
2023-04-26T11:26:54.176Z,36.79
2023-04-26T11:28:03.159Z,36.27
2023-04-26T11:29:07.914Z,35.59
2023-04-26T11:30:10.837Z,35.90
2023-04-26T11:31:14.399Z,33.97
2023-04-26T11:32:16.616Z,33.80
2023-04-26T11:33:22.844Z,33.57
2023-04-26T11:34:35.319Z,35.13
2023-04-26T11:35:38.911Z,36.10
2023-04-26T11:36:41.181Z,36.40
2023-04-26T11:37:45.574Z,36.11
2023-04-26T11:38:47.839Z,37.67
2023-04-26T11:39:51.273Z,40.94
2023-04-26T11:40:58.269Z,41.34
2023-04-26T11:42:07.272Z,42.18
2023-04-26T11:43:10.806Z,41.36
2023-04-26T11:44:12.997Z,43.83
2023-04-26T11:45:16.507Z,41.70
2023-04-26T11:46:21.441Z,42.29
2023-04-26T11:47:24.019Z,43.08
2023-04-26T11:48:26.381Z,40.47
2023-04-26T11:49:28.832Z,40.26
2023-04-26T11:50:36.658Z,40.73
2023-04-26T11:51:38.890Z,40.32
2023-04-26T11:52:41.630Z,41.35
2023-04-26T11:53:44.455Z,40.24
2023-04-26T11:54:46.674Z,40.70
2023-04-26T11:55:48.817Z,41.71
2023-04-26T11:56:51.104Z,42.47
2023-04-26T11:57:53.633Z,41.25
2023-04-26T11:58:56.767Z,41.98
2023-04-26T12:00:11.326Z,44.29
2023-04-26T12:01:20.803Z,46.46
2023-04-26T12:02:24.238Z,47.36
2023-04-26T12:03:31.179Z,49.19
2023-04-26T12:04:34.220Z,53.27
2023-04-26T12:05:36.860Z,51.36
2023-04-26T12:06:44.373Z,51.95
2023-04-26T12:07:50.560Z,49.41
2023-04-26T12:08:52.943Z,50.58
2023-04-26T12:09:56.790Z,50.59
2023-04-26T12:11:01.893Z,49.65
2023-04-26T12:12:08.264Z,50.72
2023-04-26T12:13:13.722Z,52.96
2023-04-26T12:14:16.382Z,48.38
2023-04-26T12:15:19.485Z,46.70
2023-04-26T12:16:26.897Z,48.40
2023-04-26T12:17:29.440Z,46.76
2023-04-26T12:18:32.577Z,45.46
2023-04-26T12:19:38.999Z,44.11
2023-04-26T12:20:42.672Z,46.31
2023-04-26T12:21:44.857Z,49.98
2023-04-26T12:22:58.868Z,48.60
2023-04-26T12:24:01.506Z,47.67
2023-04-26T12:25:07.208Z,45.91
2023-04-26T12:26:12.077Z,42.72
2023-04-26T12:27:21.899Z,41.85
2023-04-26T12:28:24.662Z,42.26
2023-04-26T12:29:28.695Z,41.59
2023-04-26T12:30:31.305Z,42.80
2023-04-26T12:31:39.534Z,41.85
2023-04-26T12:32:42.111Z,42.81
2023-04-26T12:33:44.362Z,43.61
2023-04-26T12:34:46.506Z,44.16
2023-04-26T12:35:51.865Z,46.80
2023-04-26T12:36:54.678Z,46.51
2023-04-26T12:37:57.217Z,45.23
2023-04-26T12:39:00.793Z,46.02
2023-04-26T12:40:03.169Z,49.58
2023-04-26T12:41:05.713Z,50.16
2023-04-26T12:42:08.365Z,48.15
2023-04-26T12:43:10.769Z,48.21
2023-04-26T12:44:14.332Z,48.65
2023-04-26T12:45:18.538Z,49.56
2023-04-26T12:46:20.820Z,48.39
2023-04-26T12:47:23.109Z,44.91
2023-04-26T12:48:25.341Z,45.49
2023-04-26T12:49:29.531Z,47.58
2023-04-26T12:50:32.182Z,47.32
2023-04-26T12:51:34.418Z,47.22
2023-04-26T12:52:36.554Z,47.04
2023-04-26T12:53:38.686Z,48.19
2023-04-26T12:54:40.879Z,47.77
2023-04-26T12:55:44.025Z,42.82
2023-04-26T12:56:46.541Z,43.01
2023-04-26T12:57:48.758Z,41.78
2023-04-26T12:58:51.013Z,44.43
2023-04-26T12:59:54.292Z,45.13
2023-04-26T13:00:56.494Z,41.94
2023-04-26T13:01:58.817Z,42.55
2023-04-26T13:03:01.484Z,42.58
2023-04-26T13:04:05.696Z,45.04
2023-04-26T13:05:09.288Z,42.37
2023-04-26T13:06:11.923Z,42.06
2023-04-26T13:07:14.441Z,42.17
2023-04-26T13:08:16.799Z,41.88
2023-04-26T13:09:19.046Z,42.80
2023-04-26T13:10:21.424Z,40.45
2023-04-26T13:11:23.622Z,41.09
2023-04-26T13:12:25.901Z,40.35
2023-04-26T13:13:36.188Z,40.20
2023-04-26T13:14:46.014Z,42.81
2023-04-26T13:15:48.249Z,43.91
2023-04-26T13:16:52.237Z,44.30
2023-04-26T13:17:54.414Z,43.83
2023-04-26T13:18:56.686Z,46.77
2023-04-26T13:19:58.968Z,46.65
2023-04-26T13:21:01.217Z,43.24
2023-04-26T13:22:04.687Z,42.85
2023-04-26T13:23:07.516Z,44.60
2023-04-26T13:24:09.712Z,44.13
2023-04-26T13:25:13.138Z,43.15
2023-04-26T13:26:19.862Z,43.27
2023-04-26T13:27:22.049Z,45.43
2023-04-26T13:28:24.176Z,48.79
2023-04-26T13:29:26.708Z,45.51